Milan, NH (03588)

3:45 PM EST on December 09, 2016 (GMT -0500)
Round Table Farm Greenhouse | | Change Station

Elev 1119 ft 44.59 °N, 71.19 °W | Updated 10 seconds ago

Overcast
Overcast
20.2 °F
Feels Like 10 °F
N
8.0
Wind Variable Wind from South

Today
High -- | Low -- °F
--% Chance of Precip.
Yesterday
High -- | Low -- °F
Precip. -- in
Pressure 29.91 in
Visibility 8.0 miles
Clouds Few 2100 ft
Scattered Clouds 3300 ft
Overcast 4900 ft
Windchill 10 °F
Dew Point 11 °F
Humidity 69%
Rainfall 0.00 in
Snow Depth Not available.
7:10 AM 4:04 PM
Waxing Gibbous, 77% visible
SPECI KBML 092014Z AUTO 29014G24KT 8SM FEW021 SCT033 OVC049 M06/M13 A2991 RMK AO2 SNE11 P0000 T10561133
Pressure 29.91 in
Visibility 8.0 miles
Clouds Few 2100 ft
Scattered Clouds 3300 ft
Overcast 4900 ft
Windchill 10 °F
Dew Point 11 °F
Humidity 69%
Rainfall 0.00 in
Snow Depth Not available.
7:10 AM 4:04 PM
Waxing Gibbous, 77% visible
SPECI KBML 092014Z AUTO 29014G24KT 8SM FEW021 SCT033 OVC049 M06/M13 A2991 RMK AO2 SNE11 P0000 T10561133

10-Day Weather Forecast

Almanac

Astronomy

Dec. 09, 2016 Rise Set
Actual Time
Civil Twilight
Nautical Twilight
Astronomical Twilight
Moon
Length of Visible Light
Length of Day
Tomorrow will be .
, % of the Moon is Illuminated

Today's Extremes

State Highs State Lows

Community

WunderPhotos

Upload Photos

1,956,517 photos uploaded!

WunderBlog® & News

Nearby

Air Quality

  Air Quality AQ Index Pollutant
Not available.

Snow Depth

Station Depth Elevation

Earthquake Activity

City Distance Mag. Time & Date
Minimum magnitude displayed is 2.5.

Coastal Water Temperatures

Place Temperature

Stations

Nearby Weather Stations

Station Location Temp. Windchill Dew Point Humidity Wind Precip. Elev Updated Type
                   

Watches & Warnings

There are currently no watches in effect.